Flight Track Log - Related Links

Times and Time Zones

All times are in EDT time to prevent confusion due to time zone crossing. See the HAL121 flight status page for this flight to view local times or setup timezone preferences in your user account.

Time Position Orientation Groundspeed Altitude Reporting Facility
EDT Latitude Longitude Course Direction KTS MPH feet Rate Location/Type
Thu 02:55:23 PM 19.7167 -155.0167 285° West 180 207 1,000  Level Honolulu Center
Thu 02:56:24 PM 19.7667 -154.9833 32° Northeast 210 242 2,500 1,587 Climbing Honolulu Center
Thu 02:57:24 PM 19.8167 -155.0167 328° Northwest 270 311 4,200 2,083 Climbing Honolulu Center
Thu 02:58:00 PM 19.9151 -155.1864 325° Northwest  Level FlightAware Approximate
Thu 02:58:25 PM 19.8667 -155.0833 309° West 280 322 6,700  Level Honolulu Center
Thu 02:59:00 PM 19.9851 -155.2263 325° Northwest  Level FlightAware Approximate
Thu 02:59:25 PM 19.9333 -155.1500 317° Northwest 300 345 8,800  Level Honolulu Center
Thu 03:00:00 PM 20.0278 -155.2944 285° West  Level FlightAware Approximate
Thu 03:00:25 PM 19.9833 -155.2167 309° West 300 345 10,500  Level Honolulu Center
Thu 03:01:26 PM 20.0333 -155.3000 303° West 340 391 11,600 1,240 Climbing Honolulu Center
Thu 03:02:26 PM 20.0667 -155.4000 290° West 380 437 13,000 1,600 Climbing Honolulu Center
Thu 03:03:26 PM 20.1167 -155.5000 298° West 370 426 14,800 1,650 Climbing Honolulu Center
Thu 03:04:26 PM 20.1667 -155.6000 298° West 390 449 16,300 1,438 Climbing Honolulu Center
Thu 03:05:27 PM 20.2000 -155.7167 287° West 400 460 17,700 1,488 Climbing Honolulu Center
Thu 03:06:27 PM 20.2500 -155.8167 298° West 400 460 19,300 1,550 Climbing Honolulu Center
Thu 03:07:27 PM 20.3000 -155.9333 295° West 410 472 20,800 1,339 Climbing Honolulu Center
Thu 03:08:28 PM 20.3333 -156.0333 290° West 400 460 22,000 595 Climbing Honolulu Center
Thu 03:09:28 PM 20.3833 -156.1500 295° West 400 460 22,000  Level Honolulu Center
Thu 03:10:28 PM 20.4333 -156.2667 295° West 400 460 22,000  Level Honolulu Center
Thu 03:11:29 PM 20.4667 -156.3833 287° West 400 460 22,000  Level Honolulu Center
Thu 03:12:29 PM 20.5167 -156.5000 295° West 400 460 22,000  Level Honolulu Center
Thu 03:13:29 PM 20.5667 -156.6000 298° West 400 460 22,000  Level Honolulu Center
Thu 03:14:30 PM 20.6167 -156.7167 295° West 410 472 22,000  Level Honolulu Center
Thu 03:15:30 PM 20.6500 -156.8167 290° West 410 472 22,000  Level Honolulu Center
Thu 03:16:31 PM 20.7000 -156.9333 295° West 400 460 22,000  Level Honolulu Center
Thu 03:17:31 PM 20.7500 -157.0500 295° West 400 460 22,000 -400 Level Honolulu Center
Thu 03:18:31 PM 20.7833 -157.1500 290° West 400 460 21,200 -1,636 Descending Honolulu Center
Thu 03:19:32 PM 20.8167 -157.2500 290° West 390 449 18,700 -2,430 Descending Honolulu Center
Thu 03:20:32 PM 20.8667 -157.3667 295° West 370 426 16,300 -2,450 Descending Honolulu Center
Thu 03:21:32 PM 20.8833 -157.4667 280° West 360 414 13,800 -2,479 Descending Honolulu Center
Thu 03:22:33 PM 20.9167 -157.5833 287° West 360 414 11,300 -1,884 Descending Honolulu Center
Thu 03:23:33 PM 20.9667 -157.6667 303° West 320 368 10,000 -1,500 Descending Honolulu Center
Thu 03:24:33 PM 21.0000 -157.7500 293° West 300 345 8,300 -1,785 Descending Honolulu Center
Thu 03:25:34 PM 21.0333 -157.8167 298° West 290 334 6,400 -1,785 Descending Honolulu Center
Thu 03:26:34 PM 21.0833 -157.9000 303° West 280 322 4,700 -1,750 Descending Honolulu Center
Thu 03:27:34 PM 21.1500 -157.9333 335° Northwest 270 311 2,900 -1,289 Descending Honolulu Center
Thu 03:28:35 PM 21.2167 -157.9500 347° North 220 253 2,100 -694 Descending Honolulu Center
Thu 03:29:35 PM 21.2667 -157.9667 343° North 190 219 1,500 -694 Descending Honolulu Center
Thu 03:30:36 PM 21.3167 -157.9667 360° North 130 150 700 -787 Descending Honolulu Center

Login

Don't have an account? Register now (free) for customized features, flight alerts, and more!